THY115 UBBB-LTAC
Flight info
| Callsign | THY115 |
|---|---|
| Flight time | N/A |
| Altitude | 40000 |
| Route | AGDAM3B AGDAM M747 LUSAL N199 EDATA/N0492F430 N161 PEMAN DCT INDUR UN161 ERZ UL615 SIV UT54 AVCES UL605 YUCEL YUCEL1R |
| Aircraft | A350/H-SDE3FGHIRWY/LB1 |
Departure
| Time | 2026-04-28 07:06 |
|---|---|
| Airport | Heydar Aliyev International Airport (UBBB) |
Arrival
| Time | N/A |
|---|---|
| Airport | Esenboğa International Airport (LTAC) |
| Time | Latitude | Longitude | Altitude | Speed | Heading |
|---|---|---|---|---|---|
| 2026-04-28 06:43 | 40.46747 | 50.05149 | 15 ft | 0 kts | 179° |
| 2026-04-28 06:49 | 40.46748 | 50.05149 | 15 ft | 0 kts | 179° |
| 2026-04-28 06:52 | 40.46763 | 50.05149 | 15 ft | 3 kts | 179° |
| 2026-04-28 06:52 | 40.46782 | 50.05148 | 18 ft | 3 kts | 183° |
| 2026-04-28 06:52 | 40.46801 | 50.05153 | 17 ft | 3 kts | 204° |
| 2026-04-28 06:52 | 40.46818 | 50.05167 | 17 ft | 3 kts | 225° |
| 2026-04-28 06:53 | 40.46829 | 50.05187 | 18 ft | 3 kts | 246° |
| 2026-04-28 06:53 | 40.46835 | 50.05211 | 18 ft | 1 kts | 267° |
| 2026-04-28 06:53 | 40.46835 | 50.05217 | 19 ft | 0 kts | 268° |
| 2026-04-28 06:57 | 40.46835 | 50.05168 | 16 ft | 8 kts | 271° |
| 2026-04-28 06:58 | 40.46836 | 50.05142 | 15 ft | 1 kts | 271° |
| 2026-04-28 06:58 | 40.46834 | 50.05096 | 15 ft | 8 kts | 262° |
| 2026-04-28 06:58 | 40.46796 | 50.05042 | 15 ft | 10 kts | 200° |
| 2026-04-28 06:58 | 40.46723 | 50.05007 | 15 ft | 13 kts | 200° |
| 2026-04-28 06:59 | 40.46637 | 50.04955 | 15 ft | 12 kts | 206° |
| 2026-04-28 06:59 | 40.46583 | 50.04917 | 15 ft | 13 kts | 214° |
| 2026-04-28 06:59 | 40.46557 | 50.04838 | 15 ft | 10 kts | 265° |
| 2026-04-28 06:59 | 40.46553 | 50.04737 | 15 ft | 12 kts | 267° |
| 2026-04-28 07:00 | 40.46548 | 50.04610 | 15 ft | 15 kts | 267° |
| 2026-04-28 07:00 | 40.46545 | 50.04458 | 15 ft | 18 kts | 268° |
| 2026-04-28 07:00 | 40.46541 | 50.04317 | 15 ft | 16 kts | 268° |
| 2026-04-28 07:00 | 40.46520 | 50.04206 | 16 ft | 10 kts | 225° |
| 2026-04-28 07:01 | 40.46478 | 50.04192 | 16 ft | 7 kts | 176° |
| 2026-04-28 07:01 | 40.46409 | 50.04218 | 15 ft | 12 kts | 160° |
| 2026-04-28 07:01 | 40.46319 | 50.04262 | 15 ft | 15 kts | 160° |
| 2026-04-28 07:01 | 40.46209 | 50.04316 | 15 ft | 18 kts | 160° |
| 2026-04-28 07:02 | 40.46078 | 50.04379 | 15 ft | 21 kts | 160° |
| 2026-04-28 07:02 | 40.45983 | 50.04426 | 15 ft | 13 kts | 158° |
| 2026-04-28 07:02 | 40.45890 | 50.04473 | 15 ft | 16 kts | 159° |
| 2026-04-28 07:02 | 40.45776 | 50.04531 | 15 ft | 19 kts | 159° |
| 2026-04-28 07:03 | 40.45738 | 50.04545 | 15 ft | 3 kts | 174° |
| 2026-04-28 07:03 | 40.45700 | 50.04518 | 15 ft | 8 kts | 229° |
| 2026-04-28 07:03 | 40.45671 | 50.04437 | 15 ft | 11 kts | 249° |
| 2026-04-28 07:03 | 40.45645 | 50.04330 | 15 ft | 4 kts | 254° |
| 2026-04-28 07:04 | 40.45643 | 50.04325 | 15 ft | 2 kts | 254° |
| 2026-04-28 07:04 | 40.45635 | 50.04284 | 15 ft | 7 kts | 256° |
| 2026-04-28 07:04 | 40.45620 | 50.04199 | 15 ft | 12 kts | 257° |
| 2026-04-28 07:04 | 40.45652 | 50.04110 | 16 ft | 12 kts | 336° |
| 2026-04-28 07:05 | 40.45711 | 50.04096 | 16 ft | 0 kts | 349° |
| 2026-04-28 07:05 | 40.45732 | 50.04091 | 16 ft | 16 kts | 349° |
| 2026-04-28 07:05 | 40.46018 | 50.04008 | 18 ft | 76 kts | 346° |
| 2026-04-28 07:05 | 40.46771 | 50.03765 | 13 ft | 147 kts | 346° |
| 2026-04-28 07:06 | 40.47964 | 50.03406 | 210 ft | 192 kts | 348° |
| 2026-04-28 07:06 | 40.49332 | 50.03054 | 797 ft | 210 kts | 348° |
| 2026-04-28 07:06 | 40.50772 | 50.02669 | 1776 ft | 213 kts | 347° |
| 2026-04-28 07:06 | 40.52281 | 50.02259 | 2463 ft | 231 kts | 345° |
| 2026-04-28 07:07 | 40.53919 | 50.01695 | 2991 ft | 254 kts | 341° |
| 2026-04-28 07:07 | 40.55646 | 50.01085 | 3966 ft | 257 kts | 343° |
| 2026-04-28 07:07 | 40.57435 | 50.00854 | 4944 ft | 263 kts | 2° |
| 2026-04-28 07:07 | 40.59177 | 50.01595 | 5869 ft | 273 kts | 29° |
| 2026-04-28 07:08 | 40.60544 | 50.03348 | 6770 ft | 281 kts | 56° |
| 2026-04-28 07:08 | 40.61189 | 50.05778 | 7681 ft | 287 kts | 84° |
| 2026-04-28 07:08 | 40.61090 | 50.08399 | 8698 ft | 290 kts | 98° |
| 2026-04-28 07:08 | 40.60785 | 50.11041 | 9674 ft | 294 kts | 99° |
| 2026-04-28 07:09 | 40.60471 | 50.13734 | 10542 ft | 305 kts | 99° |
| 2026-04-28 07:09 | 40.60152 | 50.16595 | 10987 ft | 329 kts | 98° |
| 2026-04-28 07:09 | 40.59819 | 50.19680 | 11483 ft | 349 kts | 98° |
| 2026-04-28 07:09 | 40.59479 | 50.22897 | 12237 ft | 359 kts | 98° |